Time;durP1;ratioP1;P1;durP2;ratioP2;P2;SDS_P1;SDS_P2;PMS_P1;PMS_P2;Temp;Humidity;BMP_temperature;BMP_pressure;BME280_temperature;BME280_humidity;BME280_pressure;Samples;Min_cycle;Max_cycle;Signal;HPM_P1;HPM_P2
2021/03/16 05:46:49;;;;;;;8.50;2.50;;;;;;;;;;6249338;22;885689;-81
2021/03/16 05:49:16;;;;;;;12.60;4.38;;;;;;;;;;6282202;22;20029;-81
2021/03/16 05:51:42;;;;;;;10.98;3.08;;;;;;;;;;6281691;22;20011;-80
2021/03/16 05:54:08;;;;;;;11.45;2.72;;;;;;;;;;6280862;22;20314;-81
2021/03/16 05:56:34;;;;;;;8.88;2.88;;;;;;;;;;6291938;22;20037;-81
2021/03/16 05:59:00;;;;;;;7.40;2.33;;;;;;;;;;6253330;22;20019;-80
2021/03/16 06:01:26;;;;;;;5.63;1.95;;;;;;;;;;6275502;22;20003;-79
2021/03/16 06:03:52;;;;;;;5.80;2.60;;;;;;;;;;6273719;22;20025;-79
2021/03/16 06:06:17;;;;;;;10.23;3.10;;;;;;;;;;6273744;22;20027;-79
2021/03/16 06:08:43;;;;;;;4.72;2.25;;;;;;;;;;6273989;22;20004;-78
2021/03/16 06:11:10;;;;;;;11.80;2.55;;;;;;;;;;6264500;22;20070;-78
2021/03/16 06:13:36;;;;;;;8.52;2.55;;;;;;;;;;6242753;23;20375;-78
2021/03/16 06:16:11;;;;;;;5.65;2.40;;;;;;;;;;6242995;23;19999;-78
2021/03/16 06:18:41;;;;;;;9.25;2.78;;;;;;;;;;6243206;23;20050;-79
2021/03/16 06:21:06;;;;;;;8.68;2.47;;;;;;;;;;6215979;23;19996;-78
2021/03/16 06:23:33;;;;;;;12.48;2.50;;;;;;;;;;6242842;23;20326;-79
2021/03/16 06:25:59;;;;;;;9.25;2.65;;;;;;;;;;6243094;23;20012;-78
2021/03/16 06:28:35;;;;;;;10.38;3.50;;;;;;;;;;6242966;23;20008;-78
2021/03/16 06:31:00;;;;;;;10.43;3.05;;;;;;;;;;6243346;22;20488;-78
2021/03/16 06:33:30;;;;;;;11.88;3.53;;;;;;;;;;6215816;23;20004;-78
2021/03/16 06:36:00;;;;;;;7.32;2.75;;;;;;;;;;6242963;23;20036;-78
2021/03/16 06:38:26;;;;;;;13.02;3.50;;;;;;;;;;6215812;23;20008;-78
2021/03/16 06:40:52;;;;;;;7.75;2.75;;;;;;;;;;6242947;22;19996;-78
2021/03/16 06:43:17;;;;;;;11.02;2.67;;;;;;;;;;6216140;23;20335;-77
2021/03/16 06:45:43;;;;;;;11.75;4.28;;;;;;;;;;6216326;23;20088;-81
2021/03/16 06:48:13;;;;;;;7.20;2.63;;;;;;;;;;6216387;23;20497;-82
2021/03/16 06:50:39;;;;;;;12.15;2.97;;;;;;;;;;6215930;22;20011;-82
2021/03/16 06:53:04;;;;;;;9.75;2.70;;;;;;;;;;6216128;23;20086;-82
2021/03/16 06:55:30;;;;;;;33.55;10.70;;;;;;;;;;6243073;23;20004;-82
2021/03/16 06:58:08;;;;;;;33.70;14.25;;;;;;;;;;6216335;23;20091;-82
2021/03/16 07:00:34;;;;;;;16.33;6.78;;;;;;;;;;6243291;22;20004;-82
2021/03/16 07:03:10;;;;;;;7.97;3.40;;;;;;;;;;6243817;23;20011;-82
2021/03/16 07:05:36;;;;;;;10.95;2.53;;;;;;;;;;6243731;23;19997;-82
2021/03/16 07:08:06;;;;;;;7.63;2.10;;;;;;;;;;6244799;23;20312;-82
2021/03/16 07:10:32;;;;;;;6.20;2.50;;;;;;;;;;6224132;22;20386;-82
2021/03/16 07:12:57;;;;;;;9.18;2.22;;;;;;;;;;6220153;23;20014;-82
2021/03/16 07:15:23;;;;;;;7.78;2.00;;;;;;;;;;6244493;23;20334;-82
2021/03/16 07:17:50;;;;;;;15.38;3.30;;;;;;;;;;6218409;23;20019;-82
2021/03/16 07:20:16;;;;;;;11.98;2.50;;;;;;;;;;6245359;23;20003;-82
2021/03/16 07:22:48;;;;;;;14.70;4.88;;;;;;;;;;6220019;23;20000;-82
2021/03/16 07:25:14;;;;;;;11.52;4.30;;;;;;;;;;6219354;23;20338;-82
2021/03/16 07:27:41;;;;;;;9.88;5.20;;;;;;;;;;6218335;23;20008;-82
2021/03/16 07:30:07;;;;;;;25.48;12.13;;;;;;;;;;6216380;23;20011;-82
2021/03/16 07:32:34;;;;;;;15.50;6.68;;;;;;;;;;6215975;23;20001;-82
2021/03/16 07:35:00;;;;;;;11.75;4.13;;;;;;;;;;6242676;23;20000;-82
2021/03/16 07:37:26;;;;;;;12.52;3.00;;;;;;;;;;6215894;23;20000;-82
2021/03/16 07:39:52;;;;;;;6.97;2.30;;;;;;;;;;6242969;23;20000;-82
2021/03/16 07:42:18;;;;;;;11.75;3.65;;;;;;;;;;6216068;23;20319;-82
2021/03/16 07:44:44;;;;;;;13.00;3.90;;;;;;;;;;6242878;23;20007;-82
2021/03/16 07:47:09;;;;;;;14.07;5.45;;;;;;;;;;6242678;23;20028;-82
2021/03/16 07:49:36;;;;;;;10.70;4.30;;;;;;;;;;6216113;23;20012;-84
2021/03/16 07:52:02;;;;;;;10.25;3.05;;;;;;;;;;6242584;22;20083;-85
2021/03/16 07:54:39;;;;;;;14.45;6.15;;;;;;;;;;6243324;23;20007;-83
2021/03/16 07:57:06;;;;;;;18.25;7.47;;;;;;;;;;6243861;23;20858;-83
2021/03/16 07:59:32;;;;;;;7.85;3.35;;;;;;;;;;6243914;23;20028;-83
2021/03/16 08:01:58;;;;;;;11.85;3.60;;;;;;;;;;6244335;22;20011;-83
2021/03/16 08:04:34;;;;;;;11.27;3.50;;;;;;;;;;6245114;23;20074;-83
2021/03/16 08:07:01;;;;;;;12.15;3.40;;;;;;;;;;6218888;23;20058;-83
2021/03/16 08:09:27;;;;;;;10.38;3.10;;;;;;;;;;6218628;23;20007;-83
2021/03/16 08:11:52;;;;;;;7.03;2.63;;;;;;;;;;6245380;22;20024;-83
2021/03/16 08:14:28;;;;;;;10.30;2.72;;;;;;;;;;6245197;23;20434;-83
2021/03/16 08:16:54;;;;;;;7.03;3.03;;;;;;;;;;6245642;23;20337;-83
2021/03/16 08:19:21;;;;;;;7.30;3.08;;;;;;;;;;6218274;23;20004;-83
2021/03/16 08:21:57;;;;;;;4.72;2.10;;;;;;;;;;6245358;22;20003;-83
2021/03/16 08:24:34;;;;;;;9.02;2.67;;;;;;;;;;6245099;23;19996;-83
2021/03/16 08:26:59;;;;;;;11.45;3.58;;;;;;;;;;6218291;23;20020;-83
2021/03/16 08:29:25;;;;;;;8.27;2.70;;;;;;;;;;6218216;23;20353;-83
2021/03/16 08:31:52;;;;;;;8.50;2.70;;;;;;;;;;6245121;22;20488;-83
2021/03/16 08:34:18;;;;;;;10.68;3.20;;;;;;;;;;6218142;23;20000;-83
2021/03/16 08:36:43;;;;;;;6.13;2.33;;;;;;;;;;6245028;23;20042;-83
2021/03/16 08:39:10;;;;;;;15.75;3.25;;;;;;;;;;6217744;23;20063;-83
2021/03/16 08:41:35;;;;;;;7.38;2.67;;;;;;;;;;6244647;22;20000;-83
2021/03/16 08:44:01;;;;;;;9.30;2.92;;;;;;;;;;6217591;23;20014;-82
2021/03/16 08:48:45;;;;;;;6.72;2.58;;;;;;;;;;5110878;27;20412;-81
2021/03/16 08:51:11;;;;;;;7.43;2.85;;;;;;;;;;5109904;28;20024;-81
2021/03/16 08:53:37;;;;;;;10.55;2.53;;;;;;;;;;5104966;28;20099;-81
2021/03/16 08:56:03;;;;;;;15.05;3.05;;;;;;;;;;5105972;28;20514;-82
2021/03/16 08:58:29;;;;;;;10.75;2.78;;;;;;;;;;5104237;28;20383;-82
2021/03/16 09:00:54;;;;;;;6.57;2.42;;;;;;;;;;5110151;28;20024;-81
2021/03/16 09:03:30;;;;;;;8.95;2.30;;;;;;;;;;5111993;28;20051;-81
2021/03/16 09:05:56;;;;;;;9.13;2.90;;;;;;;;;;5096994;28;20050;-81
2021/03/16 09:08:22;;;;;;;8.63;2.70;;;;;;;;;;5110676;28;20098;-81
2021/03/16 09:10:48;;;;;;;9.75;2.78;;;;;;;;;;5109972;28;20020;-81
2021/03/16 09:13:13;;;;;;;7.32;2.00;;;;;;;;;;5117598;28;20016;-81
2021/03/16 09:15:44;;;;;;;7.38;2.67;;;;;;;;;;5110549;28;20026;-81
2021/03/16 09:18:11;;;;;;;8.48;2.00;;;;;;;;;;5096172;28;20375;-81
2021/03/16 09:20:38;;;;;;;6.78;2.20;;;;;;;;;;5104318;28;20028;-81
2021/03/16 09:23:08;;;;;;;13.52;2.72;;;;;;;;;;5108949;28;20024;-82
2021/03/16 09:25:35;;;;;;;8.35;2.97;;;;;;;;;;5106529;28;20063;-81
2021/03/16 09:28:02;;;;;;;8.52;2.67;;;;;;;;;;5109362;28;20039;-81
2021/03/16 09:30:35;;;;;;;7.13;2.60;;;;;;;;;;5114796;28;20038;-81
2021/03/16 09:33:02;;;;;;;23.92;9.05;;;;;;;;;;5111374;28;20024;-81
2021/03/16 09:35:28;;;;;;;8.30;3.28;;;;;;;;;;5106834;28;20030;-81
2021/03/16 09:37:54;;;;;;;10.48;2.45;;;;;;;;;;5109683;28;20023;-81
2021/03/16 09:40:29;;;;;;;9.05;2.13;;;;;;;;;;5112548;28;20024;-81
2021/03/16 09:42:54;;;;;;;8.18;2.92;;;;;;;;;;5112441;28;20024;-81
2021/03/16 09:47:40;;;;;;;13.25;2.53;;;;;;;;;;5070103;28;20887;-81
2021/03/16 09:50:11;;;;;;;14.02;3.85;;;;;;;;;;5063120;28;20056;-81
2021/03/16 09:52:37;;;;;;;9.30;2.63;;;;;;;;;;5067071;28;20047;-81
2021/03/16 09:55:03;;;;;;;8.95;2.95;;;;;;;;;;5058187;28;20476;-81
2021/03/16 09:57:33;;;;;;;6.43;2.25;;;;;;;;;;5056340;28;20112;-81
2021/03/16 09:59:59;;;;;;;9.27;4.22;;;;;;;;;;5062380;28;20029;-81
2021/03/16 10:02:31;;;;;;;7.40;2.47;;;;;;;;;;5064833;28;20108;-81
2021/03/16 10:05:02;;;;;;;8.77;2.80;;;;;;;;;;5058912;28;20021;-81
2021/03/16 10:07:28;;;;;;;16.60;3.10;;;;;;;;;;5063780;28;20036;-81
2021/03/16 10:09:54;;;;;;;6.10;2.95;;;;;;;;;;5053124;28;21017;-81
2021/03/16 10:12:23;;;;;;;8.45;2.83;;;;;;;;;;5063904;28;20045;-81
2021/03/16 10:14:49;;;;;;;12.60;2.13;;;;;;;;;;5061094;28;20021;-81
2021/03/16 10:19:33;;;;;;;6.93;2.65;;;;;;;;;;5117495;27;20846;-79
2021/03/16 10:21:59;;;;;;;7.15;2.50;;;;;;;;;;5106777;28;20063;-79
2021/03/16 10:24:26;;;;;;;11.15;3.20;;;;;;;;;;5104436;28;20754;-79
2021/03/16 10:26:55;;;;;;;10.52;2.50;;;;;;;;;;5102588;28;20095;-79
2021/03/16 10:29:21;;;;;;;10.50;2.47;;;;;;;;;;5108488;28;20040;-79
2021/03/16 10:31:47;;;;;;;8.60;2.85;;;;;;;;;;5106935;28;20022;-79
2021/03/16 10:34:12;;;;;;;10.15;2.70;;;;;;;;;;5110532;28;20511;-80
2021/03/16 10:36:38;;;;;;;13.30;3.05;;;;;;;;;;5104248;28;20051;-80
2021/03/16 10:39:04;;;;;;;13.27;2.20;;;;;;;;;;5107707;28;20103;-80
2021/03/16 10:41:30;;;;;;;11.50;2.47;;;;;;;;;;5109952;28;20126;-80
2021/03/16 10:43:56;;;;;;;9.27;3.03;;;;;;;;;;5104697;28;20225;-80
2021/03/16 10:46:22;;;;;;;7.18;2.13;;;;;;;;;;5108722;28;20051;-78
2021/03/16 10:48:48;;;;;;;10.00;2.67;;;;;;;;;;5095017;28;20031;-80
2021/03/16 10:51:13;;;;;;;13.10;4.57;;;;;;;;;;5087394;28;20032;-80
2021/03/16 10:53:39;;;;;;;8.57;3.00;;;;;;;;;;5086980;28;20030;-80
2021/03/16 10:56:05;;;;;;;10.77;3.15;;;;;;;;;;5091419;28;20035;-80
2021/03/16 10:58:31;;;;;;;9.00;2.30;;;;;;;;;;5088197;28;20430;-80
2021/03/16 11:00:57;;;;;;;9.80;4.35;;;;;;;;;;5091377;28;20365;-80
2021/03/16 11:03:23;;;;;;;10.43;4.00;;;;;;;;;;5090659;28;20035;-79
2021/03/16 11:05:48;;;;;;;10.80;3.97;;;;;;;;;;5084806;28;20100;-80
2021/03/16 11:10:33;;;;;;;9.13;3.60;;;;;;;;;;5104941;27;20404;-79
2021/03/16 11:12:59;;;;;;;9.73;2.70;;;;;;;;;;5079390;28;20029;-79
2021/03/16 11:17:55;;;;;;;10.77;3.38;;;;;;;;;;5074400;28;20359;-80
2021/03/16 11:20:21;;;;;;;6.63;2.72;;;;;;;;;;5070838;28;20017;-80
2021/03/16 11:22:47;;;;;;;8.60;2.95;;;;;;;;;;5073400;28;20054;-81
2021/03/16 11:25:12;;;;;;;10.02;3.70;;;;;;;;;;5071484;28;20092;-80
2021/03/16 11:27:38;;;;;;;9.68;2.50;;;;;;;;;;5054288;28;20485;-80
2021/03/16 11:30:05;;;;;;;8.30;2.97;;;;;;;;;;5075087;28;20620;-80
2021/03/16 11:32:30;;;;;;;8.25;2.60;;;;;;;;;;5072453;28;20032;-80
2021/03/16 11:34:56;;;;;;;8.18;2.47;;;;;;;;;;5074306;28;20044;-81
2021/03/16 11:37:22;;;;;;;6.97;2.25;;;;;;;;;;5076477;28;20048;-80
2021/03/16 11:39:48;;;;;;;8.40;2.83;;;;;;;;;;5073005;28;20048;-80
2021/03/16 11:42:14;;;;;;;9.18;2.75;;;;;;;;;;5071504;28;20031;-80
2021/03/16 11:44:40;;;;;;;7.03;2.47;;;;;;;;;;5067946;28;20021;-80
2021/03/16 11:47:06;;;;;;;6.50;2.10;;;;;;;;;;5073694;28;20825;-80
2021/03/16 11:49:32;;;;;;;11.70;3.80;;;;;;;;;;5069552;28;20024;-80
2021/03/16 11:51:58;;;;;;;8.63;3.70;;;;;;;;;;5081407;28;20028;-80
2021/03/16 11:54:24;;;;;;;9.98;3.92;;;;;;;;;;5089308;28;20438;-80
2021/03/16 11:56:50;;;;;;;13.13;4.22;;;;;;;;;;5071348;28;20021;-79
2021/03/16 11:59:17;;;;;;;7.80;2.30;;;;;;;;;;5077364;28;20027;-80
2021/03/16 12:01:42;;;;;;;8.43;3.00;;;;;;;;;;5074099;22;20049;-80
2021/03/16 12:04:10;;;;;;;11.57;2.80;;;;;;;;;;5037259;28;20397;-81
2021/03/16 12:06:36;;;;;;;5.30;2.40;;;;;;;;;;5033534;28;20556;-80
2021/03/16 12:09:02;;;;;;;14.40;3.58;;;;;;;;;;5040323;28;20120;-80
2021/03/16 12:11:28;;;;;;;5.75;2.53;;;;;;;;;;5021797;28;20025;-80
2021/03/16 12:13:53;;;;;;;11.13;2.70;;;;;;;;;;5034130;28;20072;-80
2021/03/16 12:16:19;;;;;;;8.65;2.38;;;;;;;;;;5054591;28;20024;-80
2021/03/16 12:18:45;;;;;;;11.75;4.57;;;;;;;;;;5058001;28;20029;-80
2021/03/16 12:21:10;;;;;;;8.82;3.05;;;;;;;;;;5057241;28;20021;-78
2021/03/16 12:23:36;;;;;;;14.98;6.70;;;;;;;;;;5055501;28;20024;-80
2021/03/16 12:26:02;;;;;;;13.15;6.03;;;;;;;;;;5045053;28;20100;-80
2021/03/16 12:28:27;;;;;;;17.98;8.10;;;;;;;;;;5042319;28;20025;-80
2021/03/16 12:30:53;;;;;;;23.50;10.20;;;;;;;;;;5037142;28;20029;-80
2021/03/16 12:33:20;;;;;;;16.38;6.72;;;;;;;;;;5037733;28;20030;-80
2021/03/16 12:38:04;;;;;;;11.65;6.43;;;;;;;;;;5091616;27;20364;-78
2021/03/16 12:40:30;;;;;;;13.48;5.65;;;;;;;;;;5087701;28;20024;-80
2021/03/16 12:42:56;;;;;;;8.75;2.70;;;;;;;;;;5082480;28;20431;-81
2021/03/16 12:45:21;;;;;;;8.45;4.05;;;;;;;;;;5081548;28;20013;-80
2021/03/16 12:47:47;;;;;;;8.88;3.40;;;;;;;;;;5081042;28;20519;-78
2021/03/16 12:50:13;;;;;;;7.03;2.08;;;;;;;;;;5075804;28;20024;-79
2021/03/16 12:52:39;;;;;;;7.55;2.33;;;;;;;;;;5080903;28;20024;-80
2021/03/16 12:55:05;;;;;;;14.25;3.90;;;;;;;;;;5083476;28;20031;-79
2021/03/16 12:57:30;;;;;;;7.25;2.35;;;;;;;;;;5081653;28;20048;-78
2021/03/16 12:59:56;;;;;;;5.43;2.17;;;;;;;;;;5080250;28;20748;-78
2021/03/16 13:02:22;;;;;;;5.57;2.30;;;;;;;;;;5088999;28;20079;-78
2021/03/16 13:04:47;;;;;;;4.80;2.20;;;;;;;;;;5094978;28;20416;-78
2021/03/16 13:07:13;;;;;;;6.25;2.28;;;;;;;;;;5087991;28;20096;-78
2021/03/16 13:09:39;;;;;;;13.27;4.55;;;;;;;;;;5079733;28;20104;-79
2021/03/16 13:12:05;;;;;;;10.63;3.42;;;;;;;;;;5078272;28;20024;-79
2021/03/16 13:14:30;;;;;;;9.90;3.42;;;;;;;;;;5073829;28;20476;-79
2021/03/16 13:16:56;;;;;;;8.80;3.15;;;;;;;;;;5080140;28;20024;-79
2021/03/16 13:19:22;;;;;;;4.55;2.17;;;;;;;;;;5060711;28;20034;-79
2021/03/16 13:21:47;;;;;;;7.05;3.47;;;;;;;;;;5079994;28;20021;-79
2021/03/16 13:24:14;;;;;;;7.40;2.92;;;;;;;;;;5079688;28;20016;-78
2021/03/16 13:26:40;;;;;;;8.30;2.97;;;;;;;;;;5082411;28;20027;-79
2021/03/16 13:29:06;;;;;;;9.52;2.85;;;;;;;;;;5076756;28;20030;-79
2021/03/16 13:31:32;;;;;;;11.18;5.00;;;;;;;;;;5081473;28;20021;-79
2021/03/16 13:33:57;;;;;;;9.38;4.22;;;;;;;;;;5079151;28;20028;-78
2021/03/16 13:36:24;;;;;;;9.20;3.70;;;;;;;;;;5080517;28;20439;-78
2021/03/16 13:38:50;;;;;;;11.88;3.13;;;;;;;;;;5090986;28;20016;-79
2021/03/16 13:41:15;;;;;;;7.80;3.25;;;;;;;;;;5096053;28;20387;-79
2021/03/16 13:46:00;;;;;;;8.40;3.03;;;;;;;;;;5100723;27;20368;-78
2021/03/16 13:48:26;;;;;;;7.50;3.05;;;;;;;;;;5099901;28;20070;-78
2021/03/16 13:50:51;;;;;;;5.97;2.30;;;;;;;;;;5099758;28;20384;-78
2021/03/16 13:53:17;;;;;;;5.93;2.40;;;;;;;;;;5105765;28;20091;-79
2021/03/16 14:00:20;;;;;;;6.90;2.85;;;;;;;;;;5073138;28;20415;-79
2021/03/16 14:02:46;;;;;;;6.70;2.88;;;;;;;;;;5052936;28;20465;-78
2021/03/16 14:07:30;;;;;;;7.85;3.20;;;;;;;;;;5110789;27;20402;-79
2021/03/16 14:09:55;;;;;;;9.25;2.47;;;;;;;;;;5109156;28;20035;-78
2021/03/16 14:12:21;;;;;;;7.55;2.35;;;;;;;;;;5103886;28;20111;-79
2021/03/16 14:14:48;;;;;;;10.05;3.28;;;;;;;;;;5107101;28;20016;-79
2021/03/16 14:17:13;;;;;;;7.55;2.35;;;;;;;;;;5105469;28;20031;-79
2021/03/16 14:19:39;;;;;;;6.00;2.47;;;;;;;;;;5104168;28;20030;-79
2021/03/16 14:22:05;;;;;;;7.28;3.60;;;;;;;;;;5106829;28;20030;-78
2021/03/16 14:24:30;;;;;;;8.35;3.47;;;;;;;;;;5102564;28;20386;-79
2021/03/16 14:26:56;;;;;;;10.15;3.80;;;;;;;;;;5104269;28;20022;-78
2021/03/16 14:29:22;;;;;;;8.40;3.47;;;;;;;;;;5108996;28;20036;-79
2021/03/16 14:31:47;;;;;;;10.05;3.55;;;;;;;;;;5106445;28;20035;-78
2021/03/16 14:34:13;;;;;;;8.32;3.90;;;;;;;;;;5111478;27;20007;-78
2021/03/16 14:36:39;;;;;;;8.05;4.20;;;;;;;;;;5106807;28;20544;-79
2021/03/16 14:39:04;;;;;;;12.18;4.75;;;;;;;;;;5112041;28;20150;-78
2021/03/16 14:41:30;;;;;;;7.90;3.90;;;;;;;;;;5107116;28;20042;-78
2021/03/16 14:43:56;;;;;;;14.20;3.83;;;;;;;;;;5109109;28;20104;-78
2021/03/16 14:46:21;;;;;;;11.75;4.43;;;;;;;;;;5105424;28;20034;-79
2021/03/16 14:48:47;;;;;;;14.40;4.93;;;;;;;;;;5106044;28;20093;-78
2021/03/16 14:51:12;;;;;;;9.48;3.75;;;;;;;;;;5111787;27;20029;-79
2021/03/16 14:53:38;;;;;;;8.02;3.92;;;;;;;;;;5115618;28;20110;-78
2021/03/16 14:56:04;;;;;;;7.60;3.60;;;;;;;;;;5116928;28;20468;-78
2021/03/16 14:58:30;;;;;;;6.32;3.30;;;;;;;;;;5110053;28;20028;-78
2021/03/16 15:00:55;;;;;;;6.38;3.20;;;;;;;;;;5107347;28;20475;-78
2021/03/16 15:05:39;;;;;;;7.35;4.13;;;;;;;;;;5104622;27;20355;-78
2021/03/16 15:08:05;;;;;;;10.90;5.00;;;;;;;;;;5088198;28;20115;-78
2021/03/16 15:10:31;;;;;;;12.13;5.47;;;;;;;;;;5082708;28;20036;-79
2021/03/16 15:12:56;;;;;;;12.93;6.35;;;;;;;;;;5076175;28;20477;-80
2021/03/16 15:15:24;;;;;;;15.07;6.47;;;;;;;;;;5078447;28;20029;-82
2021/03/16 15:17:50;;;;;;;15.13;5.28;;;;;;;;;;5077083;28;20017;-79
2021/03/16 15:20:16;;;;;;;13.82;6.55;;;;;;;;;;5069565;28;20044;-78
2021/03/16 15:22:41;;;;;;;11.05;5.10;;;;;;;;;;5072742;28;20021;-78
2021/03/16 15:25:07;;;;;;;13.40;4.57;;;;;;;;;;5079302;28;20107;-78
2021/03/16 15:27:33;;;;;;;11.02;5.60;;;;;;;;;;5086238;28;20063;-78
2021/03/16 15:29:59;;;;;;;11.52;5.28;;;;;;;;;;5087938;28;20062;-78
2021/03/16 15:32:25;;;;;;;12.10;5.35;;;;;;;;;;5082675;28;20046;-78
2021/03/16 15:34:50;;;;;;;16.80;5.22;;;;;;;;;;5085955;28;20034;-79
2021/03/16 15:37:16;;;;;;;13.88;5.47;;;;;;;;;;5080023;28;20024;-79
2021/03/16 15:39:42;;;;;;;11.32;4.95;;;;;;;;;;5086906;28;20028;-80
2021/03/16 15:42:08;;;;;;;8.18;4.82;;;;;;;;;;5087903;28;20039;-79
2021/03/16 15:44:33;;;;;;;7.43;4.40;;;;;;;;;;5080117;28;20029;-79
2021/03/16 15:46:59;;;;;;;11.27;4.88;;;;;;;;;;5079386;28;20116;-79
2021/03/16 15:51:43;;;;;;;7.38;4.38;;;;;;;;;;5120567;27;20362;-79
2021/03/16 15:54:09;;;;;;;10.20;3.70;;;;;;;;;;5099619;28;20099;-78
2021/03/16 15:58:52;;;;;;;7.03;3.45;;;;;;;;;;5123957;27;20354;-80
2021/03/16 16:01:18;;;;;;;8.00;3.65;;;;;;;;;;5115173;28;20504;-78
2021/03/16 16:03:44;;;;;;;6.70;3.80;;;;;;;;;;5119916;27;20173;-78
2021/03/16 16:08:27;;;;;;;13.90;8.48;;;;;;;;;;5123599;27;20362;-79
2021/03/16 16:10:53;;;;;;;14.90;12.63;;;;;;;;;;5121927;27;20368;-79
2021/03/16 16:13:19;;;;;;;11.48;9.30;;;;;;;;;;5120969;28;20027;-79
2021/03/16 16:15:44;;;;;;;14.00;10.43;;;;;;;;;;5118707;27;20443;-78
2021/03/16 16:18:11;;;;;;;22.08;13.00;;;;;;;;;;5121467;28;20051;-79
2021/03/16 16:20:36;;;;;;;23.63;12.23;;;;;;;;;;5123476;27;20019;-79
2021/03/16 16:23:02;;;;;;;14.73;8.00;;;;;;;;;;5116354;28;20070;-78
2021/03/16 16:25:28;;;;;;;13.77;7.15;;;;;;;;;;5122652;28;20446;-79
2021/03/16 16:27:54;;;;;;;14.05;7.78;;;;;;;;;;5121439;28;20360;-78
2021/03/16 16:30:19;;;;;;;18.35;8.43;;;;;;;;;;5115134;28;20409;-79
2021/03/16 16:32:45;;;;;;;10.55;5.97;;;;;;;;;;5118898;28;20076;-78
2021/03/16 16:35:12;;;;;;;9.98;4.95;;;;;;;;;;5113311;28;20033;-78
2021/03/16 16:37:38;;;;;;;8.75;4.80;;;;;;;;;;5120155;27;20048;-78
2021/03/16 16:40:05;;;;;;;12.13;6.47;;;;;;;;;;5117504;27;20027;-78
2021/03/16 16:42:30;;;;;;;24.83;13.70;;;;;;;;;;5122761;27;20035;-78
2021/03/16 16:44:56;;;;;;;59.55;32.38;;;;;;;;;;5113958;28;20126;-78
2021/03/16 16:47:21;;;;;;;29.20;15.25;;;;;;;;;;5115488;28;20020;-78
2021/03/16 16:49:47;;;;;;;22.80;12.60;;;;;;;;;;5118549;28;20020;-79
2021/03/16 16:52:13;;;;;;;25.40;15.10;;;;;;;;;;5103183;28;20024;-80
2021/03/16 16:54:39;;;;;;;49.95;27.40;;;;;;;;;;5112843;28;20063;-79
2021/03/16 16:57:05;;;;;;;26.13;16.20;;;;;;;;;;5114720;28;20043;-78
2021/03/16 16:59:30;;;;;;;28.60;18.10;;;;;;;;;;5104144;28;20052;-80
2021/03/16 17:01:56;;;;;;;46.58;33.67;;;;;;;;;;5112891;28;20416;-78
2021/03/16 17:04:22;;;;;;;25.00;19.52;;;;;;;;;;5114022;28;20660;-79
2021/03/16 17:06:47;;;;;;;15.32;9.50;;;;;;;;;;5122030;28;20119;-80
2021/03/16 17:09:13;;;;;;;11.95;6.30;;;;;;;;;;5108424;28;20107;-80
2021/03/16 17:11:38;;;;;;;10.05;5.72;;;;;;;;;;5098917;28;20024;-79
2021/03/16 17:14:04;;;;;;;8.05;5.00;;;;;;;;;;5105343;28;20028;-80
2021/03/16 17:16:30;;;;;;;10.65;6.45;;;;;;;;;;5108921;28;20297;-80
2021/03/16 17:18:55;;;;;;;8.50;4.70;;;;;;;;;;5107166;28;20009;-80
2021/03/16 17:21:21;;;;;;;8.68;4.82;;;;;;;;;;5096984;28;20098;-80
2021/03/16 17:23:47;;;;;;;6.38;4.30;;;;;;;;;;5098375;28;20042;-79
2021/03/16 17:26:12;;;;;;;7.63;5.68;;;;;;;;;;5088215;28;20111;-80
2021/03/16 17:28:38;;;;;;;7.47;4.13;;;;;;;;;;5086786;28;20055;-80
2021/03/16 17:31:07;;;;;;;9.02;4.85;;;;;;;;;;5077455;28;20586;-80
2021/03/16 17:33:33;;;;;;;7.72;5.47;;;;;;;;;;5084605;28;20030;-79
2021/03/16 17:35:58;;;;;;;6.13;4.18;;;;;;;;;;5084346;28;20036;-81
2021/03/16 17:38:24;;;;;;;6.80;4.28;;;;;;;;;;5081531;28;20024;-79
2021/03/16 17:40:50;;;;;;;4.75;2.92;;;;;;;;;;5080585;28;20056;-80
2021/03/16 17:43:15;;;;;;;5.47;3.53;;;;;;;;;;5097636;28;20035;-80
2021/03/16 17:45:41;;;;;;;4.97;2.95;;;;;;;;;;5079294;28;20433;-79
2021/03/16 17:48:07;;;;;;;4.82;2.90;;;;;;;;;;5103546;28;20380;-79
2021/03/16 17:52:50;;;;;;;5.75;2.50;;;;;;;;;;5099580;28;20363;-80
2021/03/16 17:55:16;;;;;;;8.50;3.60;;;;;;;;;;5101048;28;20042;-79
2021/03/16 17:57:42;;;;;;;10.48;5.00;;;;;;;;;;5082448;28;20032;-79
2021/03/16 18:00:09;;;;;;;10.63;6.63;;;;;;;;;;5085297;28;20098;-78
2021/03/16 18:02:34;;;;;;;12.88;7.95;;;;;;;;;;5083591;28;20017;-79
2021/03/16 18:05:00;;;;;;;13.02;7.47;;;;;;;;;;5098702;22;20476;-78
2021/03/16 18:07:26;;;;;;;13.00;7.90;;;;;;;;;;5087445;28;20089;-82
2021/03/16 18:09:52;;;;;;;13.88;7.80;;;;;;;;;;5079715;28;20036;-79
2021/03/16 18:12:17;;;;;;;13.32;7.93;;;;;;;;;;5082353;28;20499;-78
2021/03/16 18:14:43;;;;;;;11.10;6.88;;;;;;;;;;5093411;28;20031;-79
2021/03/16 18:17:09;;;;;;;8.55;5.18;;;;;;;;;;5105376;28;20442;-80
2021/03/16 18:19:35;;;;;;;10.20;4.50;;;;;;;;;;5104929;28;20089;-79
2021/03/16 18:22:01;;;;;;;6.88;3.92;;;;;;;;;;5101482;28;20028;-81
2021/03/16 18:24:26;;;;;;;10.48;5.68;;;;;;;;;;5104853;28;20028;-80
2021/03/16 18:26:52;;;;;;;12.82;7.15;;;;;;;;;;5101092;28;20533;-79
2021/03/16 18:29:18;;;;;;;18.95;10.18;;;;;;;;;;5096706;28;20428;-81
2021/03/16 18:31:44;;;;;;;11.68;7.55;;;;;;;;;;5104766;28;20043;-80
2021/03/16 18:34:10;;;;;;;12.77;8.00;;;;;;;;;;5095878;28;20020;-79
2021/03/16 18:36:36;;;;;;;12.98;8.98;;;;;;;;;;5099189;28;20077;-80
2021/03/16 18:39:02;;;;;;;13.82;7.78;;;;;;;;;;5100323;28;20037;-80
2021/03/16 18:41:28;;;;;;;10.60;6.25;;;;;;;;;;5099084;28;20487;-79
2021/03/16 18:43:54;;;;;;;23.38;16.20;;;;;;;;;;5090627;28;20043;-80
2021/03/16 18:46:21;;;;;;;24.55;19.55;;;;;;;;;;5101526;28;20054;-79
2021/03/16 18:48:47;;;;;;;61.28;39.25;;;;;;;;;;5101364;28;20032;-81
2021/03/16 18:51:13;;;;;;;16.75;10.18;;;;;;;;;;5101247;28;20054;-80
2021/03/16 18:53:39;;;;;;;5.05;3.72;;;;;;;;;;5099507;28;20024;-82
2021/03/16 18:56:05;;;;;;;9.32;4.45;;;;;;;;;;5098869;28;20046;-80
2021/03/16 18:58:30;;;;;;;6.95;4.03;;;;;;;;;;5104290;28;20024;-80
2021/03/16 19:00:56;;;;;;;6.47;3.95;;;;;;;;;;5097889;28;20040;-80
2021/03/16 19:03:23;;;;;;;7.25;3.83;;;;;;;;;;5095519;28;20483;-82
2021/03/16 19:05:48;;;;;;;7.18;4.38;;;;;;;;;;5090624;28;20055;-79
2021/03/16 19:08:14;;;;;;;6.90;4.38;;;;;;;;;;5090890;28;20035;-81
2021/03/16 19:10:40;;;;;;;4.90;3.05;;;;;;;;;;5091982;28;20039;-79
2021/03/16 19:13:05;;;;;;;4.88;3.33;;;;;;;;;;5077527;28;20027;-79
2021/03/16 19:15:31;;;;;;;5.57;3.55;;;;;;;;;;5091849;28;20035;-79
2021/03/16 19:17:57;;;;;;;4.22;2.90;;;;;;;;;;5091812;28;20117;-82
2021/03/16 19:20:23;;;;;;;7.25;3.70;;;;;;;;;;5089437;28;20085;-82
2021/03/16 19:22:48;;;;;;;4.95;2.80;;;;;;;;;;5086439;28;20028;-81
2021/03/16 19:25:14;;;;;;;10.02;6.10;;;;;;;;;;5086910;28;20027;-80
2021/03/16 19:27:40;;;;;;;12.93;10.57;;;;;;;;;;5088010;28;20040;-80
2021/03/16 19:30:07;;;;;;;11.38;7.90;;;;;;;;;;5090944;28;20020;-80
2021/03/16 19:32:33;;;;;;;7.13;4.97;;;;;;;;;;5084475;28;20028;-80
2021/03/16 19:34:59;;;;;;;6.53;4.07;;;;;;;;;;5088673;28;20030;-84
2021/03/16 19:37:24;;;;;;;7.47;3.22;;;;;;;;;;5085593;28;20020;-79
2021/03/16 19:39:50;;;;;;;5.63;3.80;;;;;;;;;;5091054;28;20032;-82
2021/03/16 19:42:16;;;;;;;5.25;2.90;;;;;;;;;;5082300;28;20028;-82
2021/03/16 19:44:42;;;;;;;8.80;5.05;;;;;;;;;;5088058;28;20502;-82
2021/03/16 19:47:07;;;;;;;4.97;3.33;;;;;;;;;;5084745;28;20077;-82
2021/03/16 19:49:33;;;;;;;6.40;4.03;;;;;;;;;;5090583;28;20032;-85
2021/03/16 19:51:59;;;;;;;6.35;4.07;;;;;;;;;;5077658;28;20031;-80
2021/03/16 19:54:24;;;;;;;5.93;4.20;;;;;;;;;;5079560;28;20024;-81
2021/03/16 19:56:50;;;;;;;6.00;3.95;;;;;;;;;;5084546;28;20028;-81
2021/03/16 19:59:16;;;;;;;5.93;3.97;;;;;;;;;;5080827;28;20046;-82
2021/03/16 20:01:41;;;;;;;7.43;5.28;;;;;;;;;;5084436;28;20032;-82
2021/03/16 20:04:08;;;;;;;5.70;4.47;;;;;;;;;;5084997;28;20031;-79
2021/03/16 20:06:35;;;;;;;7.53;5.72;;;;;;;;;;5082975;28;20031;-79
2021/03/16 20:09:01;;;;;;;7.53;5.43;;;;;;;;;;5083000;28;20043;-80
2021/03/16 20:11:27;;;;;;;16.25;8.82;;;;;;;;;;5077783;28;20029;-80
2021/03/16 20:13:52;;;;;;;78.50;35.40;;;;;;;;;;5076847;28;20115;-81
2021/03/16 20:16:18;;;;;;;25.25;12.85;;;;;;;;;;5088031;28;20030;-82
2021/03/16 20:18:44;;;;;;;21.02;10.95;;;;;;;;;;5080672;28;20107;-80
2021/03/16 20:21:10;;;;;;;13.98;8.20;;;;;;;;;;5086429;28;20641;-81
2021/03/16 20:23:35;;;;;;;8.00;5.20;;;;;;;;;;5088504;28;20062;-81
2021/03/16 20:26:01;;;;;;;7.13;4.47;;;;;;;;;;5081647;28;20024;-81
2021/03/16 20:28:27;;;;;;;6.28;3.40;;;;;;;;;;5081450;28;20024;-81
2021/03/16 20:30:53;;;;;;;5.05;3.30;;;;;;;;;;5082475;28;20107;-84
2021/03/16 20:33:19;;;;;;;7.80;4.22;;;;;;;;;;5077318;28;20031;-88
2021/03/16 20:35:44;;;;;;;6.35;4.30;;;;;;;;;;5085467;28;20622;-80
2021/03/16 20:38:10;;;;;;;5.80;4.22;;;;;;;;;;5082402;28;20055;-83
2021/03/16 20:40:37;;;;;;;5.43;3.90;;;;;;;;;;5081986;28;20020;-81
2021/03/16 20:43:03;;;;;;;6.70;5.05;;;;;;;;;;5080708;28;20027;-81
2021/03/16 20:45:29;;;;;;;7.25;5.35;;;;;;;;;;5082567;28;20032;-83
2021/03/16 20:47:55;;;;;;;9.45;5.70;;;;;;;;;;5080356;28;20043;-85
2021/03/16 20:50:22;;;;;;;7.20;4.60;;;;;;;;;;5084034;28;20502;-85